Eastsound, WA

7:38 AM PDT on June 27, 2017 (GMT -0700)
Orcas Island

Weather History for KORS - February, 2013

Change the Weather History Date:

Sunday, February 3, 2013

  Actual Average (KFHR) Record (KFHR)
Temperature  
Mean Temperature 42 °F -  
Max Temperature 44 °F 45 °F 55 °F (2000)
Min Temperature 39 °F 35 °F 28 °F (2014)
Degree Days  
Heating Degree Days 24    
Moisture  
Dew Point 41 °F    
Average Humidity 93    
Maximum Humidity 100    
Minimum Humidity 81    
Precipitation  
Precipitation 0.00 in - - ()
Sea Level Pressure  
Sea Level Pressure 30.23 in    
Wind  
Wind Speed 4 mph (South)    
Max Wind Speed 12 mph    
Max Gust Speed -    
Visibility 8 miles    
Events Rain    
Averages and records for this station are not official NWS values.
T = Trace of Precipitation, MM = Missing Value Source: NWS Daily Summary

Daily Weather History Graph

Daily Weather History Graph

Search for Another Location

Airport or City:

Trip Planner

Search our weather history database for the weather conditions in past years. The results will help you decide how hot, cold, wet, or windy it might be!

Date:

Astronomy

Feb. 03, 2013 Rise Set
Actual Time 7:37 AM PST 5:13 PM PST
Civil Twilight 7:04 AM PST 5:47 PM PST
Nautical Twilight 6:26 AM PST 6:24 PM PST
Astronomical Twilight 5:50 AM PST 7:01 PM PST
Moon 1:13 AM PST (2/3) 10:51 AM PST (2/3)
Length of Visible Light 10h 42m
Length of Day
9h 35m
Waning Gibbous, 47% of the Moon is Illuminated
Feb 3
Waning Gibbous
Feb 9
New
Feb 17
First Quarter
Feb 25
Full
Mar 4
Last Quarter

Hourly Weather History & Observations

Time (PST) Temp. Windchill Dew Point Humidity Pressure Visibility Wind Dir Wind Speed Gust Speed Precip Events Conditions
12:15 AM 41.0 °F - 39.2 °F 93% 30.27 in 10.0 mi Calm Calm - N/A   Overcast
12:35 AM 41.0 °F - 39.2 °F 93% 30.27 in 10.0 mi Calm Calm - N/A   Overcast
12:55 AM 41.0 °F - 39.2 °F 93% 30.26 in 10.0 mi Calm Calm - N/A   Overcast
1:15 AM 41.0 °F - 39.2 °F 93% 30.25 in 10.0 mi Calm Calm - N/A   Overcast
1:35 AM 41.0 °F 38.0 °F 39.2 °F 93% 30.24 in 10.0 mi South 4.6 mph - N/A   Overcast
1:55 AM 41.0 °F 37.1 °F 39.2 °F 93% 30.25 in 10.0 mi South 5.8 mph - N/A   Overcast
2:15 AM 41.0 °F 35.8 °F 39.2 °F 93% 30.26 in 10.0 mi SSW 8.1 mph - N/A   Overcast
2:35 AM 41.0 °F 35.8 °F 39.2 °F 93% 30.25 in 10.0 mi South 8.1 mph - N/A   Overcast
2:55 AM 41.0 °F 37.1 °F 39.2 °F 93% 30.24 in 10.0 mi South 5.8 mph - N/A   Overcast
3:15 AM 41.0 °F 39.0 °F 39.2 °F 93% 30.25 in 10.0 mi South 3.5 mph - N/A   Mostly Cloudy
3:35 AM 39.2 °F 37.0 °F 39.2 °F 100% 30.25 in 10.0 mi South 3.5 mph - N/A   Partly Cloudy
3:55 AM 39.2 °F 37.0 °F 39.2 °F 100% 30.25 in 10.0 mi South 3.5 mph - N/A   Partly Cloudy
4:15 AM 39.2 °F 35.9 °F 39.2 °F 100% 30.25 in 10.0 mi South 4.6 mph - N/A   Scattered Clouds
4:35 AM 39.2 °F 37.0 °F 37.4 °F 93% 30.24 in 10.0 mi South 3.5 mph - N/A   Partly Cloudy
4:55 AM 39.2 °F - 37.4 °F 93% 30.24 in 10.0 mi Calm Calm - N/A   Scattered Clouds
5:15 AM 39.2 °F 35.9 °F 39.2 °F 100% 30.25 in 10.0 mi South 4.6 mph - N/A   Mostly Cloudy
5:35 AM 41.0 °F - 39.2 °F 93% 30.26 in 10.0 mi Calm Calm - N/A   Overcast
5:55 AM 41.0 °F 39.0 °F 39.2 °F 93% 30.26 in 10.0 mi South 3.5 mph - N/A   Overcast
6:15 AM 41.0 °F 39.0 °F 39.2 °F 93% 30.25 in 10.0 mi South 3.5 mph - N/A   Overcast
6:55 AM 41.0 °F 35.8 °F 39.2 °F 93% 30.25 in 7.0 mi South 8.1 mph - N/A   Overcast
7:15 AM 39.2 °F 35.9 °F 39.2 °F 100% 30.25 in 7.0 mi SSE 4.6 mph - N/A   Overcast
7:35 AM 39.2 °F 37.0 °F 39.2 °F 100% 30.25 in 5.0 mi SSE 3.5 mph - N/A   Overcast
7:55 AM 39.2 °F 37.0 °F 39.2 °F 100% 30.26 in 5.0 mi South 3.5 mph - N/A   Overcast
8:15 AM 39.2 °F 35.0 °F 39.2 °F 100% 30.27 in 6.0 mi South 5.8 mph - N/A   Overcast
8:35 AM 39.2 °F - 39.2 °F 100% 30.27 in 5.0 mi Calm Calm - N/A   Overcast
8:55 AM 41.0 °F 39.0 °F 39.2 °F 93% 30.27 in 6.0 mi SSE 3.5 mph - N/A   Overcast
9:15 AM 41.0 °F 39.0 °F 39.2 °F 93% 30.27 in 8.0 mi SSE 3.5 mph - N/A   Overcast
9:35 AM 41.0 °F 37.1 °F 39.2 °F 93% 30.26 in 8.0 mi South 5.8 mph - N/A   Overcast
9:55 AM 41.0 °F 38.0 °F 39.2 °F 93% 30.25 in 9.0 mi South 4.6 mph - N/A   Overcast
10:15 AM 41.0 °F 34.3 °F 39.2 °F 93% 30.27 in 10.0 mi SSW 11.5 mph - N/A   Overcast
10:35 AM 42.8 °F 38.0 °F 39.2 °F 87% 30.28 in 10.0 mi SSW 8.1 mph - N/A   Overcast
10:55 AM 44.6 °F 41.4 °F 39.2 °F 81% 30.28 in 10.0 mi South 5.8 mph - N/A   Overcast
11:15 AM 44.6 °F 40.2 °F 41.0 °F 87% 30.27 in 10.0 mi South 8.1 mph - N/A   Mostly Cloudy
11:35 AM 44.6 °F 39.7 °F 41.0 °F 87% 30.26 in 10.0 mi South 9.2 mph - N/A   Scattered Clouds
11:55 AM 44.6 °F 40.2 °F 41.0 °F 87% 30.27 in 10.0 mi South 8.1 mph - N/A   Partly Cloudy
12:15 PM 44.6 °F 40.2 °F 41.0 °F 87% 30.26 in 10.0 mi South 8.1 mph - N/A   Mostly Cloudy
12:35 PM 44.6 °F 40.2 °F 41.0 °F 87% 30.26 in 10.0 mi South 8.1 mph - N/A   Overcast
12:55 PM 44.6 °F 41.4 °F 41.0 °F 87% 30.24 in 9.0 mi South 5.8 mph - N/A Rain Light Rain
1:15 PM 44.6 °F 39.7 °F 41.0 °F 87% 30.23 in 9.0 mi South 9.2 mph - N/A   Partly Cloudy
1:55 PM 44.6 °F 39.7 °F 41.0 °F 87% 30.23 in 10.0 mi South 9.2 mph - N/A   Overcast
2:15 PM 44.6 °F 41.4 °F 41.0 °F 87% 30.22 in 10.0 mi South 5.8 mph - N/A   Mostly Cloudy
2:35 PM 44.6 °F 40.2 °F 41.0 °F 87% 30.22 in 9.0 mi South 8.1 mph - N/A Rain Light Rain
2:55 PM 44.6 °F 41.4 °F 41.0 °F 87% 30.22 in 6.0 mi South 5.8 mph - N/A Rain Light Rain
3:15 PM 44.6 °F 41.4 °F 42.8 °F 93% 30.22 in 4.0 mi South 5.8 mph - N/A Rain Light Rain
3:35 PM 44.6 °F 40.7 °F 42.8 °F 93% 30.22 in 3.0 mi South 6.9 mph - N/A Rain Light Rain
3:55 PM 44.6 °F 42.2 °F 42.8 °F 93% 30.22 in 5.0 mi South 4.6 mph - N/A Rain Light Rain
4:15 PM 44.6 °F 41.4 °F 42.8 °F 93% 30.21 in 5.0 mi South 5.8 mph - N/A Rain Light Rain
4:35 PM 44.6 °F 41.4 °F 42.8 °F 93% 30.21 in 6.0 mi South 5.8 mph - N/A Rain Light Rain
4:55 PM 44.6 °F 42.2 °F 42.8 °F 93% 30.21 in 5.0 mi South 4.6 mph - N/A Rain Light Rain
5:15 PM 44.6 °F 40.7 °F 42.8 °F 93% 30.21 in 4.0 mi South 6.9 mph - N/A Rain Light Rain
5:35 PM 44.6 °F 40.7 °F 42.8 °F 93% 30.21 in 5.0 mi South 6.9 mph - N/A Rain Light Rain
5:55 PM 44.6 °F 41.4 °F 42.8 °F 93% 30.21 in 5.0 mi South 5.8 mph - N/A Rain Light Rain
6:15 PM 42.8 °F 40.1 °F 42.8 °F 100% 30.21 in 5.0 mi South 4.6 mph - N/A Rain Light Rain
6:35 PM 44.6 °F 42.2 °F 42.8 °F 93% 30.21 in 7.0 mi South 4.6 mph - N/A Rain Light Rain
6:55 PM 44.6 °F 41.4 °F 42.8 °F 93% 30.20 in 7.0 mi South 5.8 mph - N/A Rain Light Rain
7:15 PM 44.6 °F 40.2 °F 42.8 °F 93% 30.20 in 7.0 mi South 8.1 mph - N/A   Mostly Cloudy
7:35 PM 44.6 °F 41.4 °F 42.8 °F 93% 30.20 in 7.0 mi South 5.8 mph - N/A Rain Light Rain
7:55 PM 42.8 °F 38.6 °F 42.8 °F 100% 30.20 in 6.0 mi South 6.9 mph - N/A Rain Light Rain
8:15 PM 42.8 °F 40.1 °F 42.8 °F 100% 30.19 in 9.0 mi South 4.6 mph - N/A   Overcast
8:35 PM 44.6 °F 41.4 °F 42.8 °F 93% 30.18 in 10.0 mi South 5.8 mph - N/A   Overcast
8:55 PM 44.6 °F 42.2 °F 42.8 °F 93% 30.18 in 10.0 mi South 4.6 mph - N/A   Overcast
9:15 PM 44.6 °F 42.2 °F 42.8 °F 93% 30.18 in 10.0 mi South 4.6 mph - N/A   Overcast
9:35 PM 44.6 °F 40.2 °F 42.8 °F 93% 30.18 in 10.0 mi SSW 8.1 mph - N/A   Overcast
9:55 PM 44.6 °F 39.2 °F 42.8 °F 93% 30.18 in 10.0 mi SSW 10.4 mph - N/A   Overcast
10:15 PM 44.6 °F 39.2 °F 42.8 °F 93% 30.18 in 10.0 mi SSW 10.4 mph - N/A   Mostly Cloudy
10:35 PM 44.6 °F 39.2 °F 42.8 °F 93% 30.18 in 10.0 mi SSW 10.4 mph - N/A   Overcast
10:55 PM 44.6 °F 39.2 °F 42.8 °F 93% 30.17 in 10.0 mi South 10.4 mph - N/A   Overcast
11:15 PM 44.6 °F 38.8 °F 42.8 °F 93% 30.17 in 10.0 mi SSW 11.5 mph - N/A   Mostly Cloudy
11:55 PM 44.6 °F 40.7 °F 41.0 °F 87% 30.16 in 10.0 mi South 6.9 mph - N/A   Overcast